createdAt,value
2018-12-06T07:11:43.562Z,100436.94
2018-12-06T07:14:12.986Z,100435.17
2018-12-06T07:19:37.621Z,100431.25
2018-12-06T07:22:05.787Z,100433.01
2018-12-06T07:24:33.446Z,100427.38
2018-12-06T07:27:01.035Z,100434.36
2018-12-06T07:29:29.297Z,100424.88
2018-12-06T07:31:58.860Z,100422.72
2018-12-06T07:34:26.656Z,100422.73
2018-12-06T07:36:54.305Z,100426.20
2018-12-06T07:39:22.656Z,100428.81
2018-12-06T07:41:52.298Z,100428.38
2018-12-06T07:44:29.599Z,100423.87
2018-12-06T07:46:58.988Z,100422.66
2018-12-06T07:49:26.577Z,100414.19
2018-12-06T07:51:54.705Z,100420.05
2018-12-06T07:54:22.973Z,100422.50
2018-12-06T07:56:51.134Z,100423.45
2018-12-06T07:59:19.029Z,100430.20
2018-12-06T08:01:47.033Z,100427.42
2018-12-06T08:04:14.636Z,100428.31
2018-12-06T08:06:42.181Z,100429.36
2018-12-06T08:09:10.071Z,100430.76
2018-12-06T08:11:38.704Z,100423.20
2018-12-06T08:14:06.580Z,100429.52
2018-12-06T08:16:34.844Z,100434.14
2018-12-06T08:19:02.470Z,100437.37
2018-12-06T08:21:30.763Z,100435.62
2018-12-06T08:23:59.057Z,100433.48
2018-12-06T08:26:26.759Z,100435.69
2018-12-06T08:28:54.326Z,100431.77
2018-12-06T08:31:23.848Z,100434.36
2018-12-06T08:33:51.488Z,100433.91
2018-12-06T08:36:19.125Z,100434.63
2018-12-06T08:38:46.730Z,100441.69
2018-12-06T08:41:14.270Z,100438.66
2018-12-06T08:43:48.762Z,100437.80
2018-12-06T08:46:16.395Z,100434.66
2018-12-06T08:48:45.968Z,100425.07
2018-12-06T08:51:13.508Z,100431.04
2018-12-06T08:53:41.977Z,100426.19
2018-12-06T08:56:10.397Z,100423.85
2018-12-06T08:58:40.029Z,100428.27
2018-12-06T09:01:09.548Z,100429.89
2018-12-06T09:03:37.102Z,100425.21
2018-12-06T09:06:04.761Z,100422.18
2018-12-06T09:08:32.468Z,100424.16
2018-12-06T09:11:06.201Z,100429.22
2018-12-06T09:13:35.527Z,100426.92
2018-12-06T09:16:03.108Z,100422.65
2018-12-06T09:18:30.803Z,100414.70
2018-12-06T09:20:58.479Z,100412.42
2018-12-06T09:23:26.180Z,100411.98
2018-12-06T09:25:53.878Z,100403.10
2018-12-06T09:28:21.508Z,100401.09
2018-12-06T09:30:50.009Z,100399.13
2018-12-06T09:33:17.688Z,100388.52
2018-12-06T09:35:45.482Z,100381.00
2018-12-06T09:38:13.104Z,100374.19
2018-12-06T09:40:41.583Z,100368.87
2018-12-06T09:43:10.495Z,100375.75
2018-12-06T09:45:38.286Z,100376.28
2018-12-06T09:48:05.867Z,100369.56
2018-12-06T09:50:34.506Z,100374.06
2018-12-06T09:53:07.852Z,100372.32
2018-12-06T09:55:37.290Z,100369.25
2018-12-06T09:58:05.792Z,100365.14
2018-12-06T10:00:34.290Z,100363.16
2018-12-06T10:03:02.704Z,100359.39
2018-12-06T10:05:34.560Z,100364.23
2018-12-06T10:08:02.571Z,100352.70
2018-12-06T10:10:30.173Z,100356.73
2018-12-06T10:13:03.052Z,100339.98
2018-12-06T10:15:32.148Z,100334.86
2018-12-06T10:17:59.726Z,100339.39
2018-12-06T10:20:27.297Z,100327.39
2018-12-06T10:22:54.831Z,100321.01
2018-12-06T10:25:28.484Z,100309.45
2018-12-06T10:27:56.017Z,100318.72
2018-12-06T10:30:24.481Z,100310.75
2018-12-06T10:32:52.061Z,100314.20
2018-12-06T10:38:24.353Z,100303.48
2018-12-06T10:41:04.863Z,100300.40
2018-12-06T10:43:45.391Z,100301.64
2018-12-06T10:46:25.932Z,100294.26
2018-12-06T10:49:06.414Z,100291.70
2018-12-06T10:51:46.982Z,100281.78
2018-12-06T10:54:27.384Z,100273.84
2018-12-06T10:56:55.310Z,100266.06
2018-12-06T10:59:22.963Z,100267.66
2018-12-06T11:01:56.561Z,100265.43
2018-12-06T11:04:26.167Z,100265.92
2018-12-06T11:06:53.746Z,100259.78
2018-12-06T11:09:21.458Z,100261.66
2018-12-06T11:11:49.563Z,100252.19
2018-12-06T11:14:17.238Z,100253.39
2018-12-06T11:16:45.858Z,100248.58
2018-12-06T11:19:13.527Z,100251.24
2018-12-06T11:21:41.500Z,100255.34
2018-12-06T11:24:10.126Z,100249.38
2018-12-06T11:26:37.729Z,100240.51
2018-12-06T11:29:05.326Z,100239.59
2018-12-06T11:31:33.560Z,100241.65
2018-12-06T11:34:01.279Z,100251.55
2018-12-06T11:36:28.813Z,100244.39
2018-12-06T11:38:56.595Z,100248.84
2018-12-06T11:41:24.204Z,100250.71
2018-12-06T11:43:55.477Z,100243.25
2018-12-06T11:46:23.951Z,100241.59
2018-12-06T11:48:51.524Z,100240.86
2018-12-06T11:51:19.356Z,100241.45
2018-12-06T11:53:47.035Z,100230.08
2018-12-06T11:56:14.894Z,100226.82
2018-12-06T11:58:42.533Z,100220.18
2018-12-06T12:01:11.011Z,100215.56
2018-12-06T12:03:40.337Z,100205.77
2018-12-06T12:06:09.238Z,100215.03
2018-12-06T12:08:36.861Z,100213.89
2018-12-06T12:11:04.769Z,100212.21
2018-12-06T12:13:32.419Z,100216.75
2018-12-06T12:16:01.065Z,100216.30
2018-12-06T12:18:29.581Z,100216.00
2018-12-06T12:20:58.191Z,100218.45
2018-12-06T12:23:26.749Z,100207.73
2018-12-06T12:25:55.075Z,100216.05
2018-12-06T12:28:22.770Z,100205.78
2018-12-06T12:30:51.357Z,100208.70
2018-12-06T12:33:19.352Z,100209.34
2018-12-06T12:35:46.992Z,100200.16
2018-12-06T12:38:16.864Z,100210.17
2018-12-06T12:40:45.264Z,100209.83
2018-12-06T12:43:13.804Z,100207.40
2018-12-06T12:45:44.112Z,100199.76
2018-12-06T12:48:12.960Z,100206.38
2018-12-06T12:50:41.371Z,100204.58
2018-12-06T12:53:09.211Z,100201.20
2018-12-06T12:55:38.109Z,100196.62
2018-12-06T12:58:06.490Z,100200.61
2018-12-06T13:00:34.200Z,100197.02
2018-12-06T13:03:02.068Z,100193.21
2018-12-06T13:05:31.004Z,100198.36
2018-12-06T13:07:58.801Z,100195.95
2018-12-06T13:10:26.363Z,100197.58
2018-12-06T13:12:54.743Z,100200.14
2018-12-06T13:15:22.306Z,100197.30
2018-12-06T13:17:49.834Z,100203.09
2018-12-06T13:20:17.349Z,100209.25
2018-12-06T13:22:45.059Z,100211.78
2018-12-06T13:25:13.064Z,100215.25
2018-12-06T13:27:40.677Z,100223.66
2018-12-06T13:30:08.287Z,100220.20
2018-12-06T13:32:35.876Z,100223.32
2018-12-06T13:35:03.721Z,100214.27
2018-12-06T13:37:31.432Z,100219.86
2018-12-06T13:39:59.925Z,100223.66
2018-12-06T13:42:27.702Z,100227.54
2018-12-06T13:45:08.450Z,100227.45
2018-12-06T13:47:36.028Z,100215.62
2018-12-06T13:50:04.212Z,100221.30
2018-12-06T13:52:31.925Z,100226.09
2018-12-06T13:55:00.682Z,100228.77
2018-12-06T13:57:37.400Z,100221.22
2018-12-06T14:00:05.551Z,100222.61
2018-12-06T14:02:33.166Z,100223.52
2018-12-06T14:13:39.548Z,100222.75
2018-12-06T14:16:10.582Z,100220.50
2018-12-06T14:21:31.462Z,100225.33
2018-12-06T14:23:59.027Z,100228.42
2018-12-06T14:26:29.504Z,100227.17
2018-12-06T14:28:58.156Z,100237.95
2018-12-06T14:31:25.701Z,100234.34
2018-12-06T14:33:53.300Z,100238.96
2018-12-06T14:36:21.415Z,100240.50
2018-12-06T14:38:48.982Z,100239.91
2018-12-06T14:41:16.537Z,100238.86
2018-12-06T14:43:44.122Z,100242.58
2018-12-06T14:46:12.698Z,100238.52
2018-12-06T14:48:48.990Z,100252.09
2018-12-06T14:51:16.522Z,100251.13
2018-12-06T14:53:51.042Z,100261.22
2018-12-06T14:56:18.805Z,100263.26
2018-12-06T14:58:46.346Z,100260.47
2018-12-06T15:01:13.882Z,100259.91
2018-12-06T15:03:41.485Z,100266.64
2018-12-06T15:06:09.033Z,100263.80
2018-12-06T15:08:37.363Z,100266.64
2018-12-06T15:11:05.134Z,100274.70
2018-12-06T15:13:33.686Z,100271.17
2018-12-06T15:16:01.277Z,100276.66
2018-12-06T15:18:28.862Z,100278.65
2018-12-06T15:20:57.022Z,100283.20
2018-12-06T15:23:24.666Z,100277.63
2018-12-06T15:25:52.243Z,100282.06
2018-12-06T15:28:19.877Z,100282.02
2018-12-06T15:30:48.386Z,100296.94
2018-12-06T15:33:16.002Z,100295.13
2018-12-06T15:35:44.416Z,100296.66
2018-12-06T15:38:11.973Z,100301.20
2018-12-06T15:40:39.517Z,100295.98
2018-12-06T15:43:07.903Z,100297.44
2018-12-06T15:45:35.490Z,100298.05
2018-12-06T15:48:03.038Z,100308.28
2018-12-06T15:50:30.649Z,100304.09
2018-12-06T15:52:59.123Z,100309.33
2018-12-06T15:55:27.726Z,100313.92
2018-12-06T15:57:55.305Z,100318.77
2018-12-06T16:00:22.907Z,100310.00
2018-12-06T16:02:50.445Z,100307.67
2018-12-06T16:05:19.006Z,100319.61
2018-12-06T16:07:46.546Z,100313.45
2018-12-06T16:10:14.098Z,100311.37
2018-12-06T16:12:42.542Z,100317.76
2018-12-06T16:15:10.149Z,100320.73
2018-12-06T16:17:37.741Z,100323.52
2018-12-06T16:20:07.489Z,100326.00
2018-12-06T16:22:35.179Z,100323.70
2018-12-06T16:25:02.733Z,100332.70
2018-12-06T16:27:30.304Z,100333.48
2018-12-06T16:29:57.917Z,100335.06
2018-12-06T16:32:25.510Z,100341.98
2018-12-06T16:34:53.093Z,100342.30
2018-12-06T16:37:21.504Z,100342.17
2018-12-06T16:39:49.049Z,100344.38
2018-12-06T16:42:16.661Z,100342.06
2018-12-06T16:44:57.924Z,100348.86
2018-12-06T16:47:38.402Z,100341.56
2018-12-06T16:50:20.746Z,100353.29
2018-12-06T16:53:01.238Z,100353.13
2018-12-06T16:55:41.789Z,100356.73
2018-12-06T16:58:23.117Z,100355.53
2018-12-06T17:01:04.943Z,100364.69
2018-12-06T17:03:45.166Z,100368.52
2018-12-06T17:06:25.934Z,100367.00
2018-12-06T17:09:05.851Z,100378.06
2018-12-06T17:11:46.366Z,100375.59
2018-12-06T17:14:26.904Z,100382.42
2018-12-06T17:17:07.348Z,100387.47
2018-12-06T17:19:47.744Z,100387.39
2018-12-06T17:22:28.139Z,100393.21
2018-12-06T17:25:09.194Z,100399.59
2018-12-06T17:27:36.829Z,100391.64
2018-12-06T17:30:05.730Z,100392.51
2018-12-06T17:32:33.520Z,100407.13
2018-12-06T17:35:01.141Z,100412.67
2018-12-06T17:37:28.739Z,100418.73
2018-12-06T17:39:56.352Z,100416.61
2018-12-06T17:42:24.036Z,100417.73
2018-12-06T17:44:51.699Z,100424.80
2018-12-06T17:47:19.378Z,100427.45
2018-12-06T17:49:47.006Z,100424.44
2018-12-06T17:52:14.569Z,100431.18
2018-12-06T17:54:42.164Z,100423.30
2018-12-06T17:57:09.726Z,100433.20
2018-12-06T17:59:38.155Z,100435.48
2018-12-06T18:02:05.727Z,100434.89
2018-12-06T18:04:33.724Z,100430.01
2018-12-06T18:07:01.283Z,100426.66
2018-12-06T18:09:28.858Z,100428.08
2018-12-06T18:11:59.268Z,100426.25
2018-12-06T18:14:27.362Z,100429.12
2018-12-06T18:40:41.112Z,100457.26
2018-12-06T18:49:32.795Z,100445.61
2018-12-06T18:52:00.695Z,100442.52
2018-12-06T18:54:28.317Z,100441.16
2018-12-06T18:57:28.127Z,100443.83
2018-12-06T19:00:13.331Z,100443.75
2018-12-06T19:02:52.682Z,100444.16
2018-12-06T19:05:38.433Z,100440.95
2018-12-06T19:08:18.573Z,100440.55
2018-12-06T19:10:46.148Z,100439.19
2018-12-06T19:13:13.696Z,100447.39
2018-12-06T19:15:41.272Z,100442.73
2018-12-06T19:18:21.605Z,100446.57
2018-12-06T19:21:02.024Z,100435.05
2018-12-06T19:23:40.884Z,100434.55
2018-12-06T19:26:20.972Z,100434.41
2018-12-06T19:29:01.509Z,100432.00
2018-12-06T19:31:29.144Z,100433.92
2018-12-06T19:34:09.349Z,100430.68
2018-12-06T19:36:36.917Z,100426.95
2018-12-06T19:42:10.032Z,100445.25
2018-12-06T19:44:50.195Z,100446.95
2018-12-06T19:47:36.426Z,100450.86
2018-12-06T19:50:16.569Z,100455.91
2018-12-06T19:52:57.262Z,100457.91
2018-12-06T19:55:39.033Z,100455.19
2018-12-06T19:58:20.417Z,100464.27
2018-12-06T20:04:02.325Z,100462.06
2018-12-06T20:06:42.765Z,100468.53
2018-12-06T20:12:16.436Z,100467.55
2018-12-06T20:14:56.847Z,100464.05
2018-12-06T20:17:37.329Z,100466.09
2018-12-06T20:20:23.348Z,100466.47
2018-12-06T20:25:31.962Z,100470.63
2018-12-06T20:28:12.308Z,100482.95
2018-12-06T20:30:52.761Z,100489.68
2018-12-06T20:33:33.263Z,100497.95
2018-12-06T20:36:13.722Z,100499.80
2018-12-06T20:39:02.426Z,100494.92
2018-12-06T20:41:29.970Z,100499.94
2018-12-06T20:44:09.940Z,100502.97
2018-12-06T20:46:37.464Z,100507.72
2018-12-06T20:49:16.435Z,100515.59
2018-12-06T20:51:56.342Z,100513.48
2018-12-06T20:54:36.778Z,100517.66
2018-12-06T20:57:17.318Z,100518.64
2018-12-06T20:59:57.580Z,100515.17
2018-12-06T21:02:37.933Z,100517.55
2018-12-06T21:05:05.469Z,100509.45
2018-12-06T21:07:33.042Z,100508.42
2018-12-06T21:10:13.389Z,100512.06
2018-12-06T21:12:52.909Z,100507.47
2018-12-06T22:56:00.770Z,100489.81
2018-12-06T22:58:28.295Z,100489.20
2018-12-06T23:00:55.876Z,100484.25
2018-12-06T23:03:23.391Z,100479.27
2018-12-06T23:14:27.526Z,100471.37
2018-12-06T23:17:04.073Z,100473.48
2018-12-06T23:22:37.143Z,100466.38
2018-12-06T23:25:04.880Z,100462.36
2018-12-06T23:27:44.987Z,100463.92
2018-12-06T23:30:25.454Z,100460.63
2018-12-06T23:33:03.789Z,100460.42
2018-12-06T23:35:31.352Z,100457.56
2018-12-06T23:38:05.150Z,100455.98
2018-12-06T23:40:32.809Z,100454.85
2018-12-06T23:43:00.946Z,100455.04
2018-12-06T23:45:33.271Z,100449.44
2018-12-06T23:51:15.239Z,100453.27
